Clifford, Michigan
Current Conditions -  °F | °C
As of 3:55 PM on Tuesday 27 Jan 2015 (Local Time) from KCFS Reporting Station
Scattered Clouds Scattered Clouds  
Wind Chill: 10°   Ceiling: Unl
Heat Index: 22°   Visibility: 10mi
Dew Point: 15°   Wind: 13mph
Humidity: 72%   Direction: 350°N
Pressure: 30.16"   Gusts: 17mph
Location:  43.31°N, 83.18°W
Report Text: KCFS 272055Z AUTO 35011G15KT 10SM SCT023 M05/M10 A3016 RMK AO2 T10531096
Loading
Personal Weather Stations






























Interactive Weather Map New forecast layout! Learn more

10-Day Weather Forecast

Advertisements
Track Severe Weather on mobile